West Crossett, Arkansas
Current Conditions -  °F | °C
As of 11:55 AM on Friday 21 Nov 2014 (Local Time) from KBQP Reporting Station
Overcast Overcast  
Wind Chill: 18°   Ceiling: 8500
Heat Index: 18°   Visibility: 10mi
Dew Point:   Wind: 5mph
Humidity: 56%   Direction: 170°S
Pressure: 30.26"   Gusts: NA
Location:  33.1917°N, 91.9836°W
Report Text: KBQP 211755Z AUTO 17004KT 10SM OVC085 18/09 A3026 RMK AO2 T01770089 10177 20106
Loading
Personal Weather Stations






























Interactive Weather Map New forecast layout! Learn more

10-Day Weather Forecast

Advertisements
Track Severe Weather on mobile